Time;durP1;ratioP1;P1;durP2;ratioP2;P2;SDS_P1;SDS_P2;PMS_P1;PMS_P2;Temp;Humidity;BMP_temperature;BMP_pressure;BME280_temperature;BME280_humidity;BME280_pressure;Samples;Min_cycle;Max_cycle;Signal;HPM_P1;HPM_P2
2021/12/30 00:01:11;;;;;;;;;;;;;;;10.32;49.29;98980.16;4482890;32;33490;-82
2021/12/30 00:03:40;;;;;;;;;;;;;;;10.09;49.88;98982.47;4469140;32;34987;-83
2021/12/30 00:06:09;;;;;;;;;;;;;;;10.34;49.18;98986.22;4482918;32;34311;-82
2021/12/30 00:08:36;;;;;;;;;;;;;;;11.01;47.64;98970.44;4480013;32;32718;-84
2021/12/30 00:11:04;;;;;;;;;;;;;;;11.38;46.96;98984.53;4475085;32;34260;-84
2021/12/30 00:13:32;;;;;;;;;;;;;;;10.70;48.12;98978.81;4482846;32;32793;-83
2021/12/30 00:16:00;;;;;;;;;;;;;;;10.27;48.64;98987.03;4456086;32;33346;-83
2021/12/30 00:18:27;;;;;;;;;;;;;;;9.10;51.24;98994.91;4483184;32;33739;-81
2021/12/30 00:20:55;;;;;;;;;;;;;;;10.01;49.12;98999.62;4483562;32;32719;-82
2021/12/30 00:23:22;;;;;;;;;;;;;;;10.40;48.68;99001.84;4482086;32;34028;-83
2021/12/30 00:25:49;;;;;;;;;;;;;;;10.93;47.39;98996.31;4483129;32;34446;-84
2021/12/30 00:28:21;;;;;;;;;;;;;;;11.46;46.21;98993.25;4483034;32;34100;-83
2021/12/30 00:30:50;;;;;;;;;;;;;;;10.60;47.73;98999.44;4482906;31;33297;-81
2021/12/30 00:33:17;;;;;;;;;;;;;;;11.13;46.44;98997.31;4482327;32;33797;-83
2021/12/30 00:35:48;;;;;;;;;;;;;;;11.12;46.39;99008.56;4483194;32;34146;-83
2021/12/30 00:38:16;;;;;;;;;;;;;;;11.38;46.13;99015.69;4483309;32;34949;-82
2021/12/30 00:40:43;;;;;;;;;;;;;;;11.62;45.60;99009.78;4483251;32;33538;-82
2021/12/30 00:43:10;;;;;;;;;;;;;;;11.44;46.11;99019.19;4482568;32;34864;-82
2021/12/30 00:45:38;;;;;;;;;;;;;;;11.87;45.05;99009.09;4483226;32;34281;-83
2021/12/30 00:48:06;;;;;;;;;;;;;;;12.25;44.25;99012.72;4483160;31;33834;-83
2021/12/30 00:50:35;;;;;;;;;;;;;;;12.11;44.37;99021.31;4482839;32;33845;-80
2021/12/30 00:53:06;;;;;;;;;;;;;;;12.21;44.31;99023.97;4481894;32;33874;-84
2021/12/30 00:55:34;;;;;;;;;;;;;;;12.37;44.05;99028.34;4482012;32;34183;-82
2021/12/30 00:58:01;;;;;;;;;;;;;;;12.18;44.09;99033.47;4483351;32;33869;-83
2021/12/30 01:00:31;;;;;;;;;;;;;;;12.61;43.32;99036.25;4482208;31;34044;-83
2021/12/30 01:02:58;;;;;;;;;;;;;;;12.57;43.12;99037.06;4482160;32;35090;-83
2021/12/30 01:05:26;;;;;;;;;;;;;;;12.25;43.81;99049.09;4482429;32;34274;-83
2021/12/30 01:07:53;;;;;;;;;;;;;;;12.49;43.51;99049.19;4481528;32;32625;-83
2021/12/30 01:10:23;;;;;;;;;;;;;;;12.84;42.67;99045.78;4483149;32;33471;-83
2021/12/30 01:12:51;;;;;;;;;;;;;;;12.93;42.51;99037.16;4482619;32;33822;-83
2021/12/30 01:15:19;;;;;;;;;;;;;;;12.88;42.51;99037.16;4481788;32;34063;-83
2021/12/30 01:18:19;;;;;;;;;;;;;;;12.99;42.42;99045.81;4483098;32;33928;-83
2021/12/30 01:20:34;;;;;;;;;;;;;;;12.54;43.15;99050.09;4480214;32;33422;-83
2021/12/30 01:23:01;;;;;;;;;;;;;;;13.08;42.03;99044.97;4482993;32;34212;-83
2021/12/30 01:25:28;;;;;;;;;;;;;;;13.05;42.04;99052.78;4483174;31;35684;-83
2021/12/30 01:27:55;;;;;;;;;;;;;;;12.76;42.58;99058.78;4483068;32;34946;-83
2021/12/30 01:30:23;;;;;;;;;;;;;;;12.82;42.62;99071.81;4483178;32;33177;-83
2021/12/30 01:32:50;;;;;;;;;;;;;;;12.75;42.75;99061.41;4482823;32;33100;-83
2021/12/30 01:35:23;;;;;;;;;;;;;;;12.61;43.07;99051.84;4482346;32;33766;-83
2021/12/30 01:37:50;;;;;;;;;;;;;;;12.55;43.23;99059.62;4482745;32;34114;-83
2021/12/30 01:40:18;;;;;;;;;;;;;;;12.82;42.59;99069.22;4482600;32;32987;-83
2021/12/30 01:42:45;;;;;;;;;;;;;;;12.86;42.58;99054.47;4483059;32;34306;-83
2021/12/30 01:45:12;;;;;;;;;;;;;;;12.54;43.10;99062.19;4482980;32;33941;-83
2021/12/30 01:47:47;;;;;;;;;;;;;;;12.67;42.92;99066.56;4482545;32;35161;-83
2021/12/30 01:50:14;;;;;;;;;;;;;;;12.83;42.86;99072.69;4482137;32;33425;-83
2021/12/30 01:52:41;;;;;;;;;;;;;;;13.11;42.28;99060.59;4482848;32;34832;-83
2021/12/30 01:55:10;;;;;;;;;;;;;;;13.33;41.65;99064.97;4486563;32;33944;-83
2021/12/30 01:57:37;;;;;;;;;;;;;;;13.10;41.90;99075.31;4487887;32;34160;-81
2021/12/30 02:00:06;;;;;;;;;;;;;;;13.11;42.07;99071.87;4486771;32;33326;-84
2021/12/30 02:02:38;;;;;;;;;;;;;;;12.86;42.50;99068.34;4487824;31;34458;-83
2021/12/30 02:05:06;;;;;;;;;;;;;;;12.78;42.27;99061.41;4486222;32;34430;-83
2021/12/30 02:07:33;;;;;;;;;;;;;;;11.38;45.41;99062.41;4487653;32;34994;-83
2021/12/30 02:10:02;;;;;;;;;;;;;;;10.11;49.23;99074.88;4486680;32;33394;-82
2021/12/30 02:12:30;;;;;;;;;;;;;;;11.40;46.12;99065.88;4487425;32;35161;-83
2021/12/30 02:14:57;;;;;;;;;;;;;;;10.14;49.03;99074.03;4487143;32;34078;-83
2021/12/30 02:17:25;;;;;;;;;;;;;;;11.52;45.71;99065.97;4487488;32;34380;-83
2021/12/30 02:19:59;;;;;;;;;;;;;;;12.17;44.25;99057.75;4487630;32;34237;-82
2021/12/30 02:22:26;;;;;;;;;;;;;;;12.38;43.80;99066.47;4487657;32;34114;-83
2021/12/30 02:24:54;;;;;;;;;;;;;;;12.44;43.60;99061.31;4487301;32;34442;-84
2021/12/30 02:27:21;;;;;;;;;;;;;;;11.39;45.93;99070.19;4486230;31;35206;-83
2021/12/30 02:29:48;;;;;;;;;;;;;;;12.37;43.86;99067.34;4486809;31;33538;-82
2021/12/30 02:32:15;;;;;;;;;;;;;;;12.63;43.22;99073.50;4487685;31;33239;-83
2021/12/30 02:34:42;;;;;;;;;;;;;;;12.28;43.57;99075.97;4487746;32;34374;-82
2021/12/30 02:37:11;;;;;;;;;;;;;;;12.28;43.58;99069.91;4487107;32;34902;-83
2021/12/30 02:39:39;;;;;;;;;;;;;;;8.13;54.15;99082.66;4485320;32;32965;-83
2021/12/30 02:42:06;;;;;;;;;;;;;;;9.26;52.18;99072.75;4487471;32;34594;-83
2021/12/30 02:44:35;;;;;;;;;;;;;;;9.54;51.34;99060.25;4486686;32;33877;-83
2021/12/30 02:47:03;;;;;;;;;;;;;;;9.77;50.84;99063.19;4486620;31;34207;-83
2021/12/30 02:49:30;;;;;;;;;;;;;;;9.90;50.58;99051.28;4487177;31;33556;-83
2021/12/30 02:51:57;;;;;;;;;;;;;;;10.38;49.11;99055.34;4486877;32;34157;-83
2021/12/30 02:54:24;;;;;;;;;;;;;;;10.66;48.29;99065.19;4484665;31;34035;-82
2021/12/30 02:56:52;;;;;;;;;;;;;;;10.99;47.60;99065.53;4486751;32;34122;-83
2021/12/30 02:59:19;;;;;;;;;;;;;;;10.51;48.52;99071.94;4486770;32;33231;-81
2021/12/30 03:01:49;;;;;;;;;;;;;;;10.19;49.05;99070.69;4487030;31;35149;-83
2021/12/30 03:04:17;;;;;;;;;;;;;;;10.19;49.37;99072.38;4485779;32;34903;-82
2021/12/30 03:06:44;;;;;;;;;;;;;;;10.58;48.68;99068.56;4483634;32;33380;-82
2021/12/30 03:09:12;;;;;;;;;;;;;;;11.12;47.05;99068.25;4484130;32;33066;-82
2021/12/30 03:11:39;;;;;;;;;;;;;;;11.66;45.88;99077.31;4483876;32;34105;-84
2021/12/30 03:14:06;;;;;;;;;;;;;;;11.81;45.55;99076.53;4483981;32;34162;-83
2021/12/30 03:16:35;;;;;;;;;;;;;;;12.18;44.73;99069.84;4484208;32;34340;-83
2021/12/30 03:19:03;;;;;;;;;;;;;;;12.29;44.63;99079.44;4483659;32;33471;-82
2021/12/30 03:21:31;;;;;;;;;;;;;;;12.14;44.86;99075.03;4482088;32;35049;-83
2021/12/30 03:23:59;;;;;;;;;;;;;;;11.66;45.41;99071.25;4482612;32;34439;-82
2021/12/30 03:26:26;;;;;;;;;;;;;;;11.03;46.90;99078.53;4482795;32;35349;-83
2021/12/30 03:28:53;;;;;;;;;;;;;;;10.99;46.91;99084.56;4483993;32;33142;-83
2021/12/30 03:31:21;;;;;;;;;;;;;;;11.10;46.91;99076.84;4483660;32;35167;-82
2021/12/30 03:33:48;;;;;;;;;;;;;;;11.79;45.14;99075.69;4484120;32;33793;-83
2021/12/30 03:36:16;;;;;;;;;;;;;;;10.01;48.82;99085.97;4483041;32;34681;-81
2021/12/30 03:38:46;;;;;;;;;;;;;;;10.44;48.16;99087.41;4483679;32;34139;-82
2021/12/30 03:41:14;;;;;;;;;;;;;;;10.49;48.48;99090.06;4483813;32;34383;-83
2021/12/30 03:43:41;;;;;;;;;;;;;;;10.31;49.26;99098.50;4483325;32;33962;-83
2021/12/30 03:46:10;;;;;;;;;;;;;;;9.81;50.54;99096.06;4483765;32;33868;-82
2021/12/30 03:48:42;;;;;;;;;;;;;;;9.37;51.50;99101.41;4483790;32;32993;-83
2021/12/30 03:51:13;;;;;;;;;;;;;;;9.92;50.27;99096.19;4483828;32;34952;-82
2021/12/30 03:53:41;;;;;;;;;;;;;;;10.14;49.57;99106.00;4482947;32;35238;-83
2021/12/30 03:56:08;;;;;;;;;;;;;;;10.36;49.26;99114.09;4483903;32;33710;-83
2021/12/30 03:58:36;;;;;;;;;;;;;;;10.57;48.33;99118.66;4483346;32;33552;-83
2021/12/30 04:01:04;;;;;;;;;;;;;;;9.76;50.23;99118.41;4483960;32;34952;-82
2021/12/30 04:03:32;;;;;;;;;;;;;;;10.16;49.40;99124.16;4482487;32;34174;-83
2021/12/30 04:05:59;;;;;;;;;;;;;;;10.61;48.54;99126.50;4483410;32;34482;-82
2021/12/30 04:08:26;;;;;;;;;;;;;;;9.79;50.64;99125.34;4483837;32;33772;-82
2021/12/30 04:10:55;;;;;;;;;;;;;;;8.34;54.26;99121.00;4483392;32;35352;-81
2021/12/30 04:13:23;;;;;;;;;;;;;;;8.55;54.38;99110.25;4484338;32;35321;-83
2021/12/30 04:15:51;;;;;;;;;;;;;;;9.87;50.88;99123.75;4483723;32;35161;-83
2021/12/30 04:18:19;;;;;;;;;;;;;;;9.27;52.32;99123.66;4482114;32;32701;-83
2021/12/30 04:20:46;;;;;;;;;;;;;;;8.24;55.40;99136.28;4483698;32;33818;-81
2021/12/30 04:23:14;;;;;;;;;;;;;;;9.56;51.78;99136.22;4482148;32;34391;-83
2021/12/30 04:25:41;;;;;;;;;;;;;;;9.98;50.78;99129.94;4482068;32;34710;-81
2021/12/30 04:28:09;;;;;;;;;;;;;;;10.91;48.74;99148.44;4467988;32;32657;-83
2021/12/30 04:30:37;;;;;;;;;;;;;;;11.00;47.95;99152.88;4467813;32;34312;-83
2021/12/30 04:33:05;;;;;;;;;;;;;;;9.80;50.75;99155.56;4466635;32;34323;-83
2021/12/30 04:35:32;;;;;;;;;;;;;;;10.37;49.92;99152.09;4466839;32;34280;-83
2021/12/30 04:37:59;;;;;;;;;;;;;;;10.60;48.90;99153.25;4468135;32;34197;-83
2021/12/30 04:40:28;;;;;;;;;;;;;;;10.07;50.67;99157.69;4467898;32;35038;-81
2021/12/30 04:42:55;;;;;;;;;;;;;;;10.68;48.62;99161.13;4480689;32;35340;-83
2021/12/30 04:45:22;;;;;;;;;;;;;;;10.93;48.44;99183.91;4482807;32;35012;-83
2021/12/30 04:47:50;;;;;;;;;;;;;;;11.11;48.19;99183.25;4483510;31;33000;-83
2021/12/30 04:50:17;;;;;;;;;;;;;;;11.46;47.39;99187.94;4483593;32;34609;-83
2021/12/30 04:52:44;;;;;;;;;;;;;;;11.69;46.76;99183.81;4483302;32;34314;-83
2021/12/30 04:55:12;;;;;;;;;;;;;;;11.61;46.68;99190.66;4482968;32;34195;-80
2021/12/30 04:57:39;;;;;;;;;;;;;;;12.02;45.88;99205.78;4467891;32;33411;-83
2021/12/30 05:00:07;;;;;;;;;;;;;;;12.05;45.66;99203.19;4468035;32;33530;-81
2021/12/30 05:02:56;;;;;;;;;;;;;;;12.40;45.29;99215.56;4481848;32;35263;-83
2021/12/30 05:05:22;;;;;;;;;;;;;;;12.52;44.95;99217.34;4483328;32;34575;-82
2021/12/30 05:07:49;;;;;;;;;;;;;;;12.53;44.77;99221.69;4483426;32;32991;-83
2021/12/30 05:10:16;;;;;;;;;;;;;;;12.34;44.95;99233.69;4482197;32;34107;-83
2021/12/30 05:12:43;;;;;;;;;;;;;;;12.72;43.95;99231.31;4483364;32;34423;-82
2021/12/30 05:15:11;;;;;;;;;;;;;;;12.93;43.67;99250.53;4483210;32;33774;-82
2021/12/30 05:17:39;;;;;;;;;;;;;;;12.57;43.98;99263.31;4481914;32;33570;-83
2021/12/30 05:20:08;;;;;;;;;;;;;;;12.36;44.45;99266.66;4483042;32;35033;-82
2021/12/30 05:22:35;;;;;;;;;;;;;;;12.24;44.59;99263.13;4483168;32;34430;-82
2021/12/30 05:25:02;;;;;;;;;;;;;;;12.07;45.18;99269.03;4481400;32;34139;-83
2021/12/30 05:27:30;;;;;;;;;;;;;;;11.17;47.29;99279.34;4482821;32;33135;-82
2021/12/30 05:29:57;;;;;;;;;;;;;;;12.25;44.82;99276.13;4482581;32;35109;-82
2021/12/30 05:32:24;;;;;;;;;;;;;;;12.36;44.34;99271.88;4482862;32;34157;-82
2021/12/30 05:34:51;;;;;;;;;;;;;;;12.41;44.23;99272.75;4482687;32;34290;-83
2021/12/30 05:37:19;;;;;;;;;;;;;;;12.74;43.76;99272.97;4483170;32;33605;-83
2021/12/30 05:39:46;;;;;;;;;;;;;;;12.65;43.76;99265.97;4482852;32;33766;-82
2021/12/30 05:42:13;;;;;;;;;;;;;;;12.34;44.40;99277.91;4481612;32;35382;-83
2021/12/30 05:44:41;;;;;;;;;;;;;;;12.58;43.84;99278.09;4468512;32;33648;-84
2021/12/30 05:47:08;;;;;;;;;;;;;;;12.48;44.15;99291.00;4483089;32;34000;-82
2021/12/30 05:49:35;;;;;;;;;;;;;;;12.53;44.05;99289.31;4482743;32;34106;-82
2021/12/30 05:52:02;;;;;;;;;;;;;;;10.36;48.57;99292.91;4481028;32;33996;-82
2021/12/30 05:54:30;;;;;;;;;;;;;;;10.86;48.33;99292.75;4482652;32;33918;-83
2021/12/30 05:56:57;;;;;;;;;;;;;;;11.03;47.82;99288.69;4482311;32;32979;-84
2021/12/30 05:59:24;;;;;;;;;;;;;;;11.95;45.39;99288.84;4483018;32;33703;-83
2021/12/30 06:01:53;;;;;;;;;;;;;;;12.13;45.10;99289.00;4481070;32;34503;-83
2021/12/30 06:04:20;;;;;;;;;;;;;;;11.90;45.44;99278.41;4482622;32;35033;-84
2021/12/30 06:06:47;;;;;;;;;;;;;;;10.73;48.04;99289.12;4482461;32;34078;-83
2021/12/30 06:09:14;;;;;;;;;;;;;;;10.34;49.22;99304.94;4482830;32;33482;-84
2021/12/30 06:11:42;;;;;;;;;;;;;;;10.57;48.94;99311.38;4482486;32;33871;-83
2021/12/30 06:14:09;;;;;;;;;;;;;;;10.73;48.59;99324.56;4477686;32;34193;-83
2021/12/30 06:16:36;;;;;;;;;;;;;;;11.11;47.53;99323.37;4482000;32;33079;-83
2021/12/30 06:19:04;;;;;;;;;;;;;;;11.92;45.76;99326.91;4482137;32;35005;-83
2021/12/30 06:21:31;;;;;;;;;;;;;;;11.53;46.41;99329.94;4482523;32;34339;-83
2021/12/30 06:23:58;;;;;;;;;;;;;;;11.68;46.27;99337.91;4482021;32;35101;-82
2021/12/30 06:26:25;;;;;;;;;;;;;;;11.19;46.90;99319.16;4482318;32;33091;-84
2021/12/30 06:28:53;;;;;;;;;;;;;;;10.07;49.51;99342.47;4482354;32;35051;-84
2021/12/30 06:31:20;;;;;;;;;;;;;;;11.00;47.82;99345.72;4481840;32;35367;-83
2021/12/30 06:33:47;;;;;;;;;;;;;;;9.86;50.59;99353.34;4482003;32;34145;-84
2021/12/30 06:36:14;;;;;;;;;;;;;;;9.26;52.08;99354.75;4481791;32;33474;-83
2021/12/30 06:38:42;;;;;;;;;;;;;;;9.45;52.48;99355.13;4481982;32;34905;-83
2021/12/30 06:41:12;;;;;;;;;;;;;;;9.74;51.34;99359.16;4483110;32;35001;-82
2021/12/30 06:43:39;;;;;;;;;;;;;;;9.78;51.57;99369.59;4484475;32;33761;-83
2021/12/30 06:46:09;;;;;;;;;;;;;;;8.75;54.35;99386.38;4484326;32;33828;-82
2021/12/30 06:48:37;;;;;;;;;;;;;;;10.21;50.29;99377.28;4482812;31;34017;-83
2021/12/30 06:51:05;;;;;;;;;;;;;;;9.18;52.66;99391.63;4483819;32;35342;-83
2021/12/30 06:53:34;;;;;;;;;;;;;;;10.74;49.15;99386.81;4484102;32;33952;-82
2021/12/30 06:56:01;;;;;;;;;;;;;;;10.81;48.68;99404.22;4483795;32;33119;-83
2021/12/30 06:58:28;;;;;;;;;;;;;;;10.82;48.38;99412.88;4482836;32;33728;-83
2021/12/30 07:00:57;;;;;;;;;;;;;;;10.79;48.31;99424.06;4481317;32;34360;-83
2021/12/30 07:03:25;;;;;;;;;;;;;;;11.01;48.05;99437.37;4483554;32;34036;-84
2021/12/30 07:05:55;;;;;;;;;;;;;;;11.25;47.27;99429.06;4481910;32;33242;-84
2021/12/30 07:08:22;;;;;;;;;;;;;;;11.16;47.51;99430.69;4484128;32;34782;-84
2021/12/30 07:10:50;;;;;;;;;;;;;;;9.05;52.76;99437.03;4482825;32;34255;-83
2021/12/30 07:13:18;;;;;;;;;;;;;;;9.39;52.15;99419.69;4482884;32;35038;-84
2021/12/30 07:15:45;;;;;;;;;;;;;;;9.60;51.83;99427.03;4483929;32;34293;-84
2021/12/30 07:18:13;;;;;;;;;;;;;;;10.09;50.73;99423.69;4483916;32;34872;-83
2021/12/30 07:20:40;;;;;;;;;;;;;;;8.41;54.82;99436.37;4483983;32;34270;-84
2021/12/30 07:23:07;;;;;;;;;;;;;;;10.20;50.35;99422.19;4483977;32;34185;-84
2021/12/30 07:25:34;;;;;;;;;;;;;;;9.58;51.52;99432.16;4483846;32;34377;-82
2021/12/30 07:28:03;;;;;;;;;;;;;;;9.86;51.26;99425.84;4483705;32;35082;-82
2021/12/30 07:30:30;;;;;;;;;;;;;;;8.28;55.27;99444.56;4484402;32;33763;-83
2021/12/30 07:32:58;;;;;;;;;;;;;;;9.62;52.02;99433.09;4483835;32;33728;-83
2021/12/30 07:35:26;;;;;;;;;;;;;;;9.90;51.40;99450.09;4483182;32;33159;-82
2021/12/30 07:37:54;;;;;;;;;;;;;;;9.65;51.88;99459.06;4483864;32;34737;-81
2021/12/30 07:40:21;;;;;;;;;;;;;;;10.21;50.44;99460.19;4476755;32;34471;-83
2021/12/30 07:42:48;;;;;;;;;;;;;;;10.81;48.74;99458.69;4468209;32;33893;-84
2021/12/30 07:45:15;;;;;;;;;;;;;;;9.35;51.69;99457.53;4468927;32;34222;-82
2021/12/30 07:47:49;;;;;;;;;;;;;;;8.29;55.84;99466.97;4476824;32;33911;-84
2021/12/30 07:50:16;;;;;;;;;;;;;;;8.48;55.27;99463.22;4467981;32;34288;-83
2021/12/30 07:52:43;;;;;;;;;;;;;;;9.31;52.84;99467.78;4472551;32;34268;-83
2021/12/30 07:55:13;;;;;;;;;;;;;;;9.60;52.08;99468.44;4483888;32;34583;-85
2021/12/30 07:57:41;;;;;;;;;;;;;;;10.16;50.89;99464.41;4483869;32;33583;-85
2021/12/30 08:00:09;;;;;;;;;;;;;;;10.26;50.25;99469.78;4483816;32;33683;-82
2021/12/30 08:02:40;;;;;;;;;;;;;;;9.43;52.12;99473.25;4483217;32;34923;-84
2021/12/30 08:05:09;;;;;;;;;;;;;;;8.82;54.41;99472.69;4482169;32;33330;-84
2021/12/30 08:07:36;;;;;;;;;;;;;;;8.11;56.11;99480.31;4481806;32;34087;-84
2021/12/30 08:10:04;;;;;;;;;;;;;;;8.94;54.13;99478.19;4483925;32;35086;-85
2021/12/30 08:12:31;;;;;;;;;;;;;;;8.72;54.38;99481.94;4483596;32;34562;-83
2021/12/30 08:14:58;;;;;;;;;;;;;;;9.44;52.91;99468.13;4483592;32;34246;-84
2021/12/30 08:17:25;;;;;;;;;;;;;;;8.43;56.12;99478.59;4483864;32;34938;-84
2021/12/30 08:19:53;;;;;;;;;;;;;;;10.13;51.32;99482.50;4483698;32;35203;-81
2021/12/30 08:22:20;;;;;;;;;;;;;;;9.94;51.40;99467.44;4483534;32;33636;-81
2021/12/30 08:24:47;;;;;;;;;;;;;;;9.72;52.39;99482.50;4483766;32;33299;-81
2021/12/30 08:27:15;;;;;;;;;;;;;;;10.49;50.19;99473.69;4483606;32;34096;-81
2021/12/30 08:29:42;;;;;;;;;;;;;;;9.13;53.21;99487.25;4481830;32;35394;-83
2021/12/30 08:32:11;;;;;;;;;;;;;;;8.41;55.53;99494.88;4482178;32;34227;-83
2021/12/30 08:34:39;;;;;;;;;;;;;;;7.82;57.68;99496.66;4483424;32;33088;-82
2021/12/30 08:37:07;;;;;;;;;;;;;;;8.93;54.24;99494.50;4483371;32;34334;-84
2021/12/30 08:39:36;;;;;;;;;;;;;;;9.58;52.41;99499.47;4482545;32;34370;-83
2021/12/30 08:42:04;;;;;;;;;;;;;;;10.60;49.84;99495.47;4483668;32;34318;-84
2021/12/30 08:44:31;;;;;;;;;;;;;;;10.44;50.28;99499.50;4481834;32;33313;-82
2021/12/30 08:46:58;;;;;;;;;;;;;;;10.76;49.58;99485.38;4481751;32;33798;-82
2021/12/30 08:49:26;;;;;;;;;;;;;;;10.91;49.27;99501.19;4481803;31;34228;-83
2021/12/30 08:51:53;;;;;;;;;;;;;;;9.58;52.95;99512.41;4479999;32;33487;-84
2021/12/30 08:54:20;;;;;;;;;;;;;;;9.46;53.21;99513.00;4480850;32;33132;-83
2021/12/30 08:56:47;;;;;;;;;;;;;;;9.88;51.94;99509.59;4474768;32;33894;-81
2021/12/30 08:59:14;;;;;;;;;;;;;;;8.74;55.30;99507.81;4483000;32;35338;-83
2021/12/30 09:01:42;;;;;;;;;;;;;;;10.13;51.68;99499.75;4482750;32;34512;-82
2021/12/30 09:04:09;;;;;;;;;;;;;;;9.35;53.89;99513.59;4482315;32;33043;-82
2021/12/30 09:06:36;;;;;;;;;;;;;;;9.30;54.24;99510.03;4481796;32;33413;-82
2021/12/30 09:09:05;;;;;;;;;;;;;;;10.21;52.08;99503.38;4482143;32;35222;-82
2021/12/30 09:11:32;;;;;;;;;;;;;;;10.57;50.56;99515.28;4477712;32;35152;-82
2021/12/30 09:13:59;;;;;;;;;;;;;;;11.31;48.85;99514.81;4481793;32;33137;-82
2021/12/30 09:16:27;;;;;;;;;;;;;;;11.20;49.03;99515.53;4482957;32;33777;-82
2021/12/30 09:18:54;;;;;;;;;;;;;;;11.17;49.29;99499.94;4483286;32;34866;-82
2021/12/30 09:21:21;;;;;;;;;;;;;;;11.55;47.98;99488.34;4481818;32;33897;-81
2021/12/30 09:23:49;;;;;;;;;;;;;;;9.59;52.26;99502.94;4483177;32;34192;-83
2021/12/30 09:26:16;;;;;;;;;;;;;;;10.59;50.14;99500.66;4482315;32;33887;-83
2021/12/30 09:28:43;;;;;;;;;;;;;;;10.93;49.15;99495.19;4473704;32;35141;-82
2021/12/30 09:31:10;;;;;;;;;;;;;;;11.05;48.97;99497.09;4481105;32;33873;-81
2021/12/30 09:33:38;;;;;;;;;;;;;;;10.80;49.45;99492.38;4479395;32;34725;-83
2021/12/30 09:36:05;;;;;;;;;;;;;;;10.71;50.04;99509.50;4465910;32;34136;-84
2021/12/30 09:38:32;;;;;;;;;;;;;;;11.04;49.50;99516.13;4467262;32;34438;-82
2021/12/30 09:41:00;;;;;;;;;;;;;;;11.36;48.93;99514.03;4467388;32;34656;-81
2021/12/30 09:43:32;;;;;;;;;;;;;;;9.61;53.27;99533.19;4480850;32;33911;-82
2021/12/30 09:45:59;;;;;;;;;;;;;;;10.32;51.12;99526.94;4477997;32;35032;-83
2021/12/30 09:48:26;;;;;;;;;;;;;;;11.07;49.29;99513.59;4467358;32;34191;-83
2021/12/30 09:50:54;;;;;;;;;;;;;;;11.28;48.91;99522.56;4467237;32;34367;-84
2021/12/30 09:53:24;;;;;;;;;;;;;;;11.66;48.19;99529.19;4470341;32;33277;-84
2021/12/30 09:55:52;;;;;;;;;;;;;;;11.48;48.03;99528.03;4482386;32;33650;-82
2021/12/30 09:58:19;;;;;;;;;;;;;;;11.54;48.25;99526.41;4481584;32;34899;-82
2021/12/30 10:00:46;;;;;;;;;;;;;;;11.48;48.32;99522.84;4482592;32;33730;-83
2021/12/30 10:03:16;;;;;;;;;;;;;;;11.21;48.88;99524.16;4482453;32;33532;-81
2021/12/30 10:05:43;;;;;;;;;;;;;;;11.22;49.29;99528.53;4482695;32;33652;-82
2021/12/30 10:08:18;;;;;;;;;;;;;;;10.89;49.96;99526.25;4482518;32;33725;-82
2021/12/30 10:10:49;;;;;;;;;;;;;;;11.17;49.14;99525.88;4481202;32;34819;-81
2021/12/30 10:13:18;;;;;;;;;;;;;;;11.01;49.90;99520.41;4482353;32;33279;-84
2021/12/30 10:15:46;;;;;;;;;;;;;;;10.05;51.68;99520.31;4483913;32;35196;-80
2021/12/30 10:18:13;;;;;;;;;;;;;;;8.45;56.29;99526.03;4484079;32;34983;-83
2021/12/30 10:20:42;;;;;;;;;;;;;;;10.40;52.15;99522.75;4484605;32;34947;-83
2021/12/30 10:23:09;;;;;;;;;;;;;;;10.03;52.76;99522.00;4475753;32;33608;-82
2021/12/30 10:25:38;;;;;;;;;;;;;;;9.37;54.41;99528.34;4484098;32;33794;-84
2021/12/30 10:28:20;;;;;;;;;;;;;;;10.21;52.89;99522.38;4481913;32;34290;-83
2021/12/30 10:30:54;;;;;;;;;;;;;;;10.42;51.86;99511.59;4472529;32;34155;-81
2021/12/30 10:33:22;;;;;;;;;;;;;;;10.61;51.63;99518.00;4472748;32;32789;-83
2021/12/30 10:35:51;;;;;;;;;;;;;;;10.12;52.22;99519.59;4476635;32;35107;-82
2021/12/30 10:38:24;;;;;;;;;;;;;;;9.70;54.10;99527.34;4483113;32;35061;-82
2021/12/30 10:41:00;;;;;;;;;;;;;;;10.61;51.74;99522.31;4471067;32;34535;-81
2021/12/30 10:43:36;;;;;;;;;;;;;;;11.10;50.26;99529.22;4468403;32;34565;-83
2021/12/30 10:46:04;;;;;;;;;;;;;;;11.12;50.61;99522.31;4468497;32;34691;-79
2021/12/30 10:48:32;;;;;;;;;;;;;;;11.43;49.10;99522.78;4467276;32;33725;-81
2021/12/30 10:51:26;;;;;;;;;;;;;;;10.36;52.10;99515.78;4480795;32;34142;-82
2021/12/30 10:54:23;;;;;;;;;;;;;;;11.16;50.35;99508.53;4480089;32;31937;-83
2021/12/30 10:57:02;;;;;;;;;;;;;;;11.20;50.26;99509.47;4440471;32;34482;-82
2021/12/30 10:59:46;;;;;;;;;;;;;;;11.02;51.06;99502.25;4482877;32;35247;-82
2021/12/30 11:02:23;;;;;;;;;;;;;;;10.16;53.63;99505.87;4470799;32;34153;-82
2021/12/30 11:04:57;;;;;;;;;;;;;;;10.95;51.29;99503.03;4473205;31;32691;-83
2021/12/30 11:07:26;;;;;;;;;;;;;;;10.49;52.67;99494.41;4485456;31;35002;-81
2021/12/30 11:09:58;;;;;;;;;;;;;;;11.10;50.95;99503.28;4490945;31;33454;-83
2021/12/30 11:12:27;;;;;;;;;;;;;;;11.74;49.29;99486.84;4478868;32;34798;-84
2021/12/30 11:14:54;;;;;;;;;;;;;;;9.96;53.89;99499.41;4469535;32;31816;-83
2021/12/30 11:17:28;;;;;;;;;;;;;;;8.93;57.51;99509.16;4483727;32;34566;-82
2021/12/30 11:19:58;;;;;;;;;;;;;;;10.01;54.28;99500.38;4483871;32;35448;-81
2021/12/30 11:22:27;;;;;;;;;;;;;;;10.15;53.75;99492.88;4479263;31;34637;-81
2021/12/30 11:24:55;;;;;;;;;;;;;;;9.87;54.91;99494.91;4485704;31;33456;-83
2021/12/30 11:27:23;;;;;;;;;;;;;;;10.71;52.21;99490.50;4490456;31;34939;-81
2021/12/30 11:29:56;;;;;;;;;;;;;;;10.36;53.46;99493.31;4469380;32;35096;-83
2021/12/30 11:32:25;;;;;;;;;;;;;;;9.43;55.71;99506.88;4477562;31;34030;-81
2021/12/30 11:34:54;;;;;;;;;;;;;;;9.37;56.10;99511.94;4480276;31;33583;-84
2021/12/30 11:37:21;;;;;;;;;;;;;;;9.98;54.31;99513.28;4484456;31;34949;-82
2021/12/30 11:39:50;;;;;;;;;;;;;;;10.14;53.85;99504.09;4483611;31;34941;-83
2021/12/30 11:42:19;;;;;;;;;;;;;;;9.90;54.71;99509.66;4463976;32;33649;-82
2021/12/30 11:44:47;;;;;;;;;;;;;;;8.69;57.82;99509.41;4483787;32;34097;-82
2021/12/30 11:47:36;;;;;;;;;;;;;;;10.31;53.51;99504.47;4491496;31;35105;-82
2021/12/30 11:50:08;;;;;;;;;;;;;;;10.36;53.02;99497.63;4495937;31;35160;-83
2021/12/30 11:52:45;;;;;;;;;;;;;;;10.44;53.08;99490.87;4478769;32;34124;-82
2021/12/30 11:55:31;;;;;;;;;;;;;;;9.21;56.54;99496.06;4483558;32;33064;-83
2021/12/30 11:58:17;;;;;;;;;;;;;;;9.51;55.01;99492.44;4467877;32;34298;-82
2021/12/30 12:00:44;;;;;;;;;;;;;;;10.20;53.89;99486.94;4480108;31;34120;-81
2021/12/30 12:03:30;;;;;;;;;;;;;;;10.57;53.19;99479.00;4485092;31;33817;-81
2021/12/30 12:05:58;;;;;;;;;;;;;;;9.94;54.26;99476.06;4480245;31;34061;-85
2021/12/30 12:08:28;;;;;;;;;;;;;;;10.60;53.34;99479.94;4498328;31;35677;-85
2021/12/30 12:11:13;;;;;;;;;;;;;;;10.62;52.40;99477.38;4499717;31;33775;-84
2021/12/30 12:13:41;;;;;;;;;;;;;;;11.04;51.63;99479.81;4485166;31;33990;-82
2021/12/30 12:16:09;;;;;;;;;;;;;;;11.01;52.00;99482.34;4498131;31;34023;-84
2021/12/30 12:18:37;;;;;;;;;;;;;;;10.83;52.38;99487.22;4467919;32;34167;-81
2021/12/30 12:21:05;;;;;;;;;;;;;;;11.46;50.99;99481.28;4474179;31;33928;-82
2021/12/30 12:23:32;;;;;;;;;;;;;;;11.27;51.31;99490.53;4496069;31;33030;-84
2021/12/30 12:26:10;;;;;;;;;;;;;;;11.54;50.67;99505.63;4483379;32;34320;-85
2021/12/30 12:28:38;;;;;;;;;;;;;;;11.36;50.52;99493.25;4453559;32;33769;-83
2021/12/30 12:31:08;;;;;;;;;;;;;;;11.12;51.16;99490.31;4460658;31;34746;-81
2021/12/30 12:33:36;;;;;;;;;;;;;;;11.36;51.39;99494.97;4485843;31;34108;-82
2021/12/30 12:36:10;;;;;;;;;;;;;;;11.17;51.84;99505.13;4490160;31;34055;-85
2021/12/30 12:38:38;;;;;;;;;;;;;;;11.90;50.15;99492.31;4487647;31;35123;-82
2021/12/30 12:41:20;;;;;;;;;;;;;;;12.28;49.36;99502.31;4483494;32;34436;-83
2021/12/30 12:43:52;;;;;;;;;;;;;;;12.32;49.04;99504.06;4443529;31;33498;-81
2021/12/30 12:46:36;;;;;;;;;;;;;;;11.88;49.60;99496.63;4445620;31;32393;-82
2021/12/30 12:49:06;;;;;;;;;;;;;;;12.42;48.78;99499.84;4458825;31;34428;-82
2021/12/30 12:51:34;;;;;;;;;;;;;;;11.56;50.52;99503.09;4482020;32;33922;-81
2021/12/30 12:54:05;;;;;;;;;;;;;;;11.62;51.20;99504.03;4468925;32;34082;-84
2021/12/30 12:56:39;;;;;;;;;;;;;;;10.65;53.95;99509.41;4490648;31;32985;-84
2021/12/30 12:59:15;;;;;;;;;;;;;;;12.07;50.04;99512.44;4483346;32;34125;-84